Time;durP1;ratioP1;P1;durP2;ratioP2;P2;SDS_P1;SDS_P2;PMS_P1;PMS_P2;Temp;Humidity;BMP_temperature;BMP_pressure;BME280_temperature;BME280_humidity;BME280_pressure;Samples;Min_cycle;Max_cycle;Signal;HPM_P1;HPM_P2
2024/01/11 00:01:27;;;;;;;54.10;24.00;;;;;;;2.95;57.60;100249.13;108096;1253;69469;-67
2024/01/11 00:03:55;;;;;;;53.10;25.10;;;;;;;2.99;57.68;100241.65;108050;1254;71373;-66
2024/01/11 00:06:22;;;;;;;49.50;24.00;;;;;;;2.98;57.79;100231.59;108034;1254;61690;-67
2024/01/11 00:08:50;;;;;;;47.60;22.80;;;;;;;3.05;57.71;100224.96;108116;1255;60319;-67
2024/01/11 00:11:18;;;;;;;52.30;24.00;;;;;;;3.02;57.66;100220.64;108128;1252;73870;-68
2024/01/11 00:13:45;;;;;;;50.30;24.30;;;;;;;2.88;58.13;100220.19;108157;1254;68866;-67
2024/01/11 00:16:13;;;;;;;61.60;27.10;;;;;;;2.89;58.21;100221.40;108110;1254;73543;-67
2024/01/11 00:18:40;;;;;;;52.20;25.00;;;;;;;2.91;58.27;100220.02;108072;1253;61660;-66
2024/01/11 00:21:08;;;;;;;59.20;27.70;;;;;;;2.99;58.08;100218.59;108112;1252;60422;-66
2024/01/11 00:23:36;;;;;;;60.60;28.20;;;;;;;2.94;58.13;100218.60;108182;1252;73907;-66
2024/01/11 00:26:04;;;;;;;64.10;29.00;;;;;;;2.87;58.40;100221.77;108102;1252;69170;-67
2024/01/11 00:28:31;;;;;;;69.40;31.50;;;;;;;2.82;58.54;100219.52;108128;1257;72440;-67
2024/01/11 00:30:59;;;;;;;66.70;27.40;;;;;;;2.95;58.09;100212.00;108094;1254;60487;-66
2024/01/11 00:33:26;;;;;;;81.10;35.50;;;;;;;2.76;58.36;100211.39;108104;1254;60456;-66
2024/01/11 00:35:54;;;;;;;89.90;36.60;;;;;;;2.90;58.04;100209.25;108069;1254;72947;-66
2024/01/11 00:38:21;;;;;;;86.70;37.90;;;;;;;2.84;58.11;100212.41;108123;1253;70492;-67
2024/01/11 00:40:49;;;;;;;85.20;35.10;;;;;;;3.00;57.60;100212.85;108070;1254;72098;-65
2024/01/11 00:43:16;;;;;;;88.30;38.20;;;;;;;2.93;57.68;100210.98;108051;1254;61690;-67
2024/01/11 00:45:45;;;;;;;93.90;39.80;;;;;;;2.85;57.80;100208.06;108059;1253;59671;-67
2024/01/11 00:48:13;;;;;;;100.20;39.50;;;;;;;2.91;57.69;100199.37;108038;1253;73787;-66
2024/01/11 00:50:41;;;;;;;93.60;38.90;;;;;;;2.79;57.83;100195.78;108069;1254;69948;-64
2024/01/11 00:53:10;;;;;;;93.70;37.00;;;;;;;2.66;58.01;100188.72;108035;1257;71479;-65
2024/01/11 00:55:37;;;;;;;104.40;40.50;;;;;;;2.65;57.95;100185.09;108059;1255;61528;-66
2024/01/11 00:58:05;;;;;;;95.20;38.90;;;;;;;2.62;58.11;100176.77;108031;1259;60339;-66
2024/01/11 01:00:32;;;;;;;103.10;41.50;;;;;;;2.69;57.96;100167.73;108114;1254;73042;-69
2024/01/11 01:03:00;;;;;;;99.30;42.50;;;;;;;2.61;57.99;100165.86;108206;1254;70688;-66
2024/01/11 01:05:28;;;;;;;99.70;41.60;;;;;;;2.71;57.74;100157.84;108058;1254;70702;-67
2024/01/11 01:07:55;;;;;;;100.10;42.80;;;;;;;2.78;57.67;100150.89;108014;1254;60472;-65
2024/01/11 01:10:23;;;;;;;100.50;38.20;;;;;;;2.65;57.97;100147.65;108028;1254;60185;-67
2024/01/11 01:12:51;;;;;;;99.00;41.30;;;;;;;2.57;58.28;100146.98;108047;1254;72987;-67
2024/01/11 01:15:18;;;;;;;100.30;40.50;;;;;;;2.69;57.94;100143.12;108064;1253;68759;-66
2024/01/11 01:17:46;;;;;;;98.90;39.60;;;;;;;2.83;57.64;100134.39;108062;1254;71374;-67
2024/01/11 01:20:14;;;;;;;104.70;41.40;;;;;;;2.88;57.35;100125.86;108160;1254;63202;-66
2024/01/11 01:22:42;;;;;;;77.40;32.10;;;;;;;2.84;57.42;100129.34;108116;1253;60347;-65
2024/01/11 01:25:09;;;;;;;95.50;38.00;;;;;;;2.79;57.56;100129.55;108056;1254;72912;-66
2024/01/11 01:27:37;;;;;;;94.00;36.40;;;;;;;2.75;57.70;100120.55;108125;1254;69218;-66
2024/01/11 01:30:06;;;;;;;94.80;40.00;;;;;;;2.64;57.91;100114.54;108064;1254;74927;-66
2024/01/11 01:32:34;;;;;;;109.70;41.30;;;;;;;2.88;57.55;100108.17;108120;1252;61659;-66
2024/01/11 01:35:02;;;;;;;94.80;38.50;;;;;;;2.75;57.64;100110.84;108107;1254;60463;-66
2024/01/11 01:37:31;;;;;;;97.00;38.00;;;;;;;2.79;57.59;100099.90;108121;1252;72602;-66
2024/01/11 01:39:59;;;;;;;96.40;39.00;;;;;;;2.88;57.27;100095.34;108166;1254;68763;-66
2024/01/11 01:42:26;;;;;;;93.40;38.00;;;;;;;3.04;57.20;100097.31;108143;1254;72749;-66
2024/01/11 01:44:54;;;;;;;94.60;39.10;;;;;;;3.12;57.07;100088.23;108087;1254;60714;-67
2024/01/11 01:47:21;;;;;;;90.30;38.30;;;;;;;2.99;57.36;100082.77;108233;1251;60305;-66
2024/01/11 01:49:49;;;;;;;87.60;36.50;;;;;;;2.99;57.48;100074.63;108386;1251;72818;-67
2024/01/11 01:52:16;;;;;;;95.30;39.50;;;;;;;3.10;57.22;100068.65;108280;1251;68592;-66
2024/01/11 01:54:44;;;;;;;84.30;34.20;;;;;;;3.09;57.17;100063.61;108185;1251;72645;-64
2024/01/11 01:57:11;;;;;;;81.50;34.10;;;;;;;2.84;57.63;100052.70;108302;1251;61834;-66
2024/01/11 01:59:39;;;;;;;87.50;35.40;;;;;;;2.90;57.59;100048.33;108248;1251;59172;-67
2024/01/11 02:02:07;;;;;;;92.00;35.50;;;;;;;2.94;57.52;100040.48;108247;1251;72935;-66
2024/01/11 02:04:34;;;;;;;99.80;37.60;;;;;;;3.00;57.44;100027.61;108248;1251;70245;-66
2024/01/11 02:07:02;;;;;;;90.60;35.20;;;;;;;3.06;57.19;100020.96;108340;1251;72643;-65
2024/01/11 02:09:31;;;;;;;84.90;34.10;;;;;;;2.86;57.71;100007.61;108238;1254;60659;-66
2024/01/11 02:11:58;;;;;;;95.30;38.10;;;;;;;3.01;57.53;100002.80;108255;1251;60361;-66
2024/01/11 02:14:26;;;;;;;85.60;34.00;;;;;;;3.14;57.14;99992.63;108124;1251;72651;-67
2024/01/11 02:16:53;;;;;;;90.20;36.80;;;;;;;3.14;57.03;99991.77;108250;1251;68787;-64
2024/01/11 02:19:21;;;;;;;88.20;34.50;;;;;;;3.03;57.25;99985.80;108240;1252;72463;-66
2024/01/11 02:21:52;;;;;;;87.90;34.60;;;;;;;3.10;56.97;99982.60;108351;1253;60420;-67
2024/01/11 02:24:20;;;;;;;84.60;34.20;;;;;;;3.19;56.86;99977.50;108270;1256;60297;-66
2024/01/11 02:27:00;;;;;;;79.10;31.10;;;;;;;2.95;57.32;99970.77;108246;1251;74368;-67
2024/01/11 02:29:28;;;;;;;91.70;37.10;;;;;;;3.09;57.11;99968.73;108246;1251;70197;-67
2024/01/11 02:31:56;;;;;;;69.40;27.70;;;;;;;3.16;56.98;99966.07;108234;1251;72698;-67
2024/01/11 02:34:24;;;;;;;85.10;33.00;;;;;;;3.00;57.29;99963.61;108125;1251;61980;-66
2024/01/11 02:36:52;;;;;;;89.10;36.50;;;;;;;2.91;57.16;99951.39;108341;1251;59109;-66
2024/01/11 02:39:20;;;;;;;86.70;34.90;;;;;;;2.94;57.30;99942.34;108261;1251;73829;-66
2024/01/11 02:41:48;;;;;;;76.40;33.80;;;;;;;2.93;57.53;99931.42;108178;1251;70106;-66
2024/01/11 02:44:15;;;;;;;82.30;33.80;;;;;;;3.20;56.86;99933.06;108229;1251;71445;-66
2024/01/11 02:46:43;;;;;;;78.10;32.10;;;;;;;3.24;56.72;99927.13;108270;1251;60383;-66
2024/01/11 02:49:10;;;;;;;91.60;37.10;;;;;;;3.29;56.44;99923.77;108331;1251;60397;-67
2024/01/11 02:51:38;;;;;;;96.10;38.60;;;;;;;3.35;56.23;99918.67;108146;1251;72874;-65
2024/01/11 02:54:06;;;;;;;74.10;29.10;;;;;;;3.39;56.21;99910.48;108226;1251;70215;-66
2024/01/11 02:56:33;;;;;;;80.20;33.90;;;;;;;3.17;56.44;99906.57;108224;1252;72703;-66
2024/01/11 02:59:01;;;;;;;76.00;32.10;;;;;;;3.19;56.39;99894.91;108184;1254;60666;-66
2024/01/11 03:01:28;;;;;;;78.10;32.50;;;;;;;3.19;56.53;99885.20;108163;1251;60237;-67
2024/01/11 03:03:56;;;;;;;91.50;37.20;;;;;;;3.27;56.22;99881.30;108354;1251;73877;-66
2024/01/11 03:06:24;;;;;;;83.00;36.30;;;;;;;3.42;55.87;99880.60;108216;1251;70076;-68
2024/01/11 03:08:51;;;;;;;88.20;35.70;;;;;;;3.60;55.49;99881.77;108272;1251;71805;-67
2024/01/11 03:11:19;;;;;;;85.30;34.50;;;;;;;3.50;55.87;99880.50;108365;1251;60303;-65
2024/01/11 03:13:46;;;;;;;84.00;34.60;;;;;;;3.52;55.77;99878.56;108272;1251;60261;-65
2024/01/11 03:16:14;;;;;;;83.60;33.00;;;;;;;3.62;55.54;99870.80;108333;1251;73905;-65
2024/01/11 03:18:42;;;;;;;79.60;32.00;;;;;;;3.61;55.51;99859.72;108174;1251;68955;-66
2024/01/11 03:21:09;;;;;;;90.50;35.10;;;;;;;3.64;55.38;99852.02;108227;1251;71806;-67
2024/01/11 03:23:37;;;;;;;85.40;34.20;;;;;;;3.66;55.15;99847.14;108236;1251;61663;-67
2024/01/11 03:26:15;;;;;;;85.70;34.70;;;;;;;3.46;55.58;99842.36;108191;1251;60203;-66
2024/01/11 03:28:43;;;;;;;86.10;34.70;;;;;;;3.35;55.74;99835.91;108263;1256;72547;-67
2024/01/11 03:31:11;;;;;;;82.50;32.20;;;;;;;3.23;56.08;99829.13;108219;1254;69346;-66
2024/01/11 03:33:38;;;;;;;83.70;35.70;;;;;;;3.27;56.07;99816.21;108109;1254;70681;-66
2024/01/11 03:36:10;;;;;;;92.90;37.40;;;;;;;3.49;55.55;99807.77;107953;1254;60521;-66
2024/01/11 03:38:37;;;;;;;87.60;35.50;;;;;;;3.52;55.40;99804.64;108007;1254;60325;-67
2024/01/11 03:41:11;;;;;;;89.50;34.30;;;;;;;3.54;55.57;99795.04;108121;1254;74107;-66
2024/01/11 03:43:39;;;;;;;79.40;33.00;;;;;;;3.58;55.31;99791.70;108163;1258;68864;-70
2024/01/11 03:46:07;;;;;;;90.80;34.20;;;;;;;3.60;55.34;99788.20;108088;1254;71383;-66
2024/01/11 03:48:35;;;;;;;97.20;37.30;;;;;;;3.51;55.55;99782.59;108018;1254;61560;-66
2024/01/11 03:51:04;;;;;;;84.20;34.80;;;;;;;3.46;55.63;99786.83;108107;1252;60264;-67
2024/01/11 03:53:35;;;;;;;88.90;34.30;;;;;;;3.46;55.63;99782.48;108034;1252;72844;-67
2024/01/11 03:56:04;;;;;;;97.10;38.30;;;;;;;3.62;55.45;99776.55;108118;1255;70865;-66
2024/01/11 03:58:32;;;;;;;87.10;33.90;;;;;;;3.52;55.58;99771.48;108063;1258;72700;-66
2024/01/11 04:01:00;;;;;;;82.80;33.10;;;;;;;3.61;55.45;99762.49;107981;1254;60381;-66
2024/01/11 04:03:27;;;;;;;83.50;31.80;;;;;;;3.66;55.35;99759.65;108049;1253;60354;-66
2024/01/11 04:05:55;;;;;;;90.10;36.40;;;;;;;3.64;55.32;99754.30;108121;1254;73843;-67
2024/01/11 04:08:23;;;;;;;91.70;37.00;;;;;;;3.72;55.09;99748.62;108127;1254;69577;-67
2024/01/11 04:10:50;;;;;;;79.30;33.30;;;;;;;3.77;54.96;99752.70;108152;1254;71764;-66
2024/01/11 04:13:18;;;;;;;96.00;38.30;;;;;;;3.72;54.98;99744.61;108123;1254;60440;-67
2024/01/11 04:15:47;;;;;;;87.10;34.80;;;;;;;3.75;54.79;99740.57;108112;1254;60227;-66
2024/01/11 04:18:14;;;;;;;86.80;34.50;;;;;;;3.64;55.03;99740.73;108165;1256;73785;-65
2024/01/11 04:20:42;;;;;;;87.20;35.90;;;;;;;3.49;55.29;99744.61;108237;1256;70486;-66
2024/01/11 04:23:10;;;;;;;89.40;35.20;;;;;;;3.58;54.87;99746.90;108207;1254;71165;-65
2024/01/11 04:25:37;;;;;;;94.20;35.90;;;;;;;3.62;54.97;99750.15;108190;1256;60395;-66
2024/01/11 04:28:05;;;;;;;87.70;36.60;;;;;;;3.70;54.70;99753.67;108172;1251;60172;-67
2024/01/11 04:30:32;;;;;;;72.10;27.40;;;;;;;3.70;54.64;99751.09;108254;1256;74609;-66
2024/01/11 04:33:00;;;;;;;89.60;35.40;;;;;;;3.68;54.66;99754.77;108316;1257;70141;-66
2024/01/11 04:35:28;;;;;;;85.50;33.70;;;;;;;3.55;54.84;99745.21;108270;1255;72409;-66
2024/01/11 04:37:55;;;;;;;86.90;32.90;;;;;;;3.51;54.86;99729.98;108303;1257;61657;-67
2024/01/11 04:40:23;;;;;;;87.80;35.40;;;;;;;3.52;54.72;99735.02;108306;1251;60257;-67
2024/01/11 04:42:50;;;;;;;76.90;31.10;;;;;;;3.54;54.65;99725.27;108257;1256;72799;-66
2024/01/11 04:45:18;;;;;;;78.50;34.40;;;;;;;3.40;54.96;99724.42;108245;1251;70038;-64
2024/01/11 04:47:45;;;;;;;87.30;35.60;;;;;;;3.61;54.55;99728.30;108262;1256;72654;-65
2024/01/11 04:50:13;;;;;;;82.40;35.20;;;;;;;3.64;54.40;99727.91;108236;1256;60444;-64
2024/01/11 04:52:40;;;;;;;92.90;35.80;;;;;;;3.49;54.83;99729.84;108252;1252;60260;-66
2024/01/11 04:55:08;;;;;;;84.30;33.80;;;;;;;3.48;54.72;99731.60;108289;1251;73741;-65
2024/01/11 04:57:36;;;;;;;85.70;35.20;;;;;;;3.53;54.80;99737.61;108217;1251;70506;-65
2024/01/11 05:00:05;;;;;;;81.40;33.30;;;;;;;3.63;54.43;99734.00;108318;1254;71408;-66
2024/01/11 05:02:33;;;;;;;71.50;30.80;;;;;;;3.63;54.39;99734.69;108264;1251;61679;-67
2024/01/11 05:05:00;;;;;;;82.70;32.50;;;;;;;3.63;54.52;99733.98;108258;1251;60316;-66
2024/01/11 05:07:28;;;;;;;81.40;34.80;;;;;;;3.55;54.73;99725.95;108208;1251;74063;-66
2024/01/11 05:09:57;;;;;;;87.20;34.40;;;;;;;3.40;55.28;99720.45;108214;1251;70321;-67
2024/01/11 05:12:24;;;;;;;87.20;34.30;;;;;;;3.46;55.15;99713.24;108216;1254;71395;-67
2024/01/11 05:14:53;;;;;;;71.70;28.90;;;;;;;3.50;55.08;99710.75;108159;1257;61649;-67
2024/01/11 05:17:21;;;;;;;73.90;30.70;;;;;;;3.47;55.06;99709.06;108369;1251;60357;-69
2024/01/11 05:19:48;;;;;;;80.60;33.70;;;;;;;3.54;55.20;99704.79;108309;1251;73806;-66
2024/01/11 05:22:17;;;;;;;68.20;27.70;;;;;;;3.32;55.73;99705.63;108332;1257;69360;-66
2024/01/11 05:24:45;;;;;;;82.90;34.40;;;;;;;3.24;56.10;99696.20;108235;1251;71417;-67
2024/01/11 05:27:12;;;;;;;82.10;32.80;;;;;;;3.52;55.55;99697.02;108234;1260;63820;-68
2024/01/11 05:29:40;;;;;;;84.60;34.90;;;;;;;3.57;55.39;99695.70;108267;1251;60325;-65
2024/01/11 05:32:07;;;;;;;99.10;37.70;;;;;;;3.64;55.33;99695.95;108175;1252;72628;-65
2024/01/11 05:34:35;;;;;;;80.90;34.00;;;;;;;3.61;55.36;99693.74;108153;1253;69220;-66
2024/01/11 05:37:04;;;;;;;79.50;34.20;;;;;;;3.39;55.74;99690.60;108117;1254;72852;-66
2024/01/11 05:39:32;;;;;;;78.00;29.90;;;;;;;3.57;55.46;99686.00;108176;1254;61700;-67
2024/01/11 05:41:59;;;;;;;81.50;33.60;;;;;;;3.51;55.65;99686.61;108130;1257;60236;-66
2024/01/11 05:44:27;;;;;;;85.90;32.50;;;;;;;3.60;55.51;99686.31;108094;1259;72189;-67
2024/01/11 05:46:55;;;;;;;85.50;36.00;;;;;;;3.47;55.77;99685.98;108088;1254;68994;-65
2024/01/11 05:49:22;;;;;;;80.30;32.20;;;;;;;3.71;55.39;99682.83;108108;1254;72541;-65
2024/01/11 05:51:50;;;;;;;77.00;30.30;;;;;;;3.59;55.43;99684.39;108119;1254;60446;-66
2024/01/11 05:54:18;;;;;;;80.20;31.40;;;;;;;3.52;55.58;99682.23;108150;1254;60363;-66
2024/01/11 05:56:45;;;;;;;94.40;36.10;;;;;;;3.48;55.68;99672.42;108207;1254;72550;-64
2024/01/11 05:59:13;;;;;;;86.60;34.40;;;;;;;3.39;55.95;99663.36;108109;1254;68848;-65
2024/01/11 06:01:42;;;;;;;94.90;36.10;;;;;;;3.52;55.72;99658.30;108166;1254;72829;-66
2024/01/11 06:04:09;;;;;;;88.00;34.50;;;;;;;3.67;55.45;99654.08;108130;1258;60758;-67
2024/01/11 06:06:37;;;;;;;85.90;33.40;;;;;;;3.49;55.82;99660.25;108119;1253;59185;-67
2024/01/11 06:09:05;;;;;;;78.30;31.30;;;;;;;3.16;56.84;99656.23;108156;1254;72618;-67
2024/01/11 06:11:32;;;;;;;88.30;34.50;;;;;;;3.35;56.55;99650.94;108090;1257;70288;-67
2024/01/11 06:14:01;;;;;;;102.70;40.40;;;;;;;3.44;56.41;99650.10;108226;1253;72744;-67
2024/01/11 06:16:29;;;;;;;86.20;35.10;;;;;;;3.58;55.91;99642.23;108161;1257;60514;-67
2024/01/11 06:18:57;;;;;;;79.50;32.60;;;;;;;3.59;56.05;99649.16;108102;1258;60338;-67
2024/01/11 06:21:24;;;;;;;87.50;35.30;;;;;;;3.73;55.57;99656.58;108128;1254;74150;-67
2024/01/11 06:23:52;;;;;;;90.30;38.50;;;;;;;3.72;55.84;99648.09;108120;1254;68984;-67
2024/01/11 06:26:19;;;;;;;78.50;33.50;;;;;;;3.73;55.87;99644.77;108083;1254;72454;-67
2024/01/11 06:28:47;;;;;;;84.80;37.00;;;;;;;3.73;55.93;99642.69;108020;1253;60671;-67
2024/01/11 06:31:14;;;;;;;88.60;34.00;;;;;;;3.66;56.00;99636.73;108171;1254;60334;-67
2024/01/11 06:33:42;;;;;;;75.60;30.50;;;;;;;3.71;55.91;99643.08;108187;1251;73901;-65
2024/01/11 06:36:10;;;;;;;86.20;33.90;;;;;;;3.76;55.98;99639.67;108225;1256;69167;-68
2024/01/11 06:38:38;;;;;;;78.10;33.00;;;;;;;3.92;55.45;99634.02;108206;1254;72813;-65
2024/01/11 06:41:06;;;;;;;85.50;33.20;;;;;;;3.91;55.46;99634.20;108173;1254;60296;-66
2024/01/11 06:43:33;;;;;;;83.60;32.60;;;;;;;3.68;55.81;99643.98;108128;1255;60331;-67
2024/01/11 06:46:05;;;;;;;81.90;32.10;;;;;;;3.71;56.00;99635.77;108158;1251;72324;-66
2024/01/11 06:48:32;;;;;;;80.70;33.10;;;;;;;3.82;55.67;99632.45;108217;1251;70053;-66
2024/01/11 06:51:01;;;;;;;71.50;30.70;;;;;;;3.95;55.39;99625.63;108277;1251;72666;-66
2024/01/11 06:53:29;;;;;;;82.00;32.20;;;;;;;3.88;55.40;99622.45;108337;1253;60408;-67
2024/01/11 06:55:56;;;;;;;71.60;30.20;;;;;;;3.84;55.65;99625.99;108283;1251;60194;-65
2024/01/11 06:58:24;;;;;;;69.50;30.40;;;;;;;3.75;55.69;99626.33;108180;1251;73862;-66
2024/01/11 07:00:51;;;;;;;70.70;30.60;;;;;;;3.91;55.30;99619.10;108324;1251;70076;-67
2024/01/11 07:03:19;;;;;;;65.30;29.70;;;;;;;3.96;55.35;99614.52;108142;1261;70607;-67
2024/01/11 07:05:47;;;;;;;72.00;30.70;;;;;;;3.89;55.57;99610.80;108304;1255;63227;-66
2024/01/11 07:08:16;;;;;;;72.00;31.60;;;;;;;4.00;55.31;99602.43;108212;1251;60676;-66
2024/01/11 07:10:44;;;;;;;71.20;30.60;;;;;;;4.02;55.08;99601.36;108255;1251;72674;-66
2024/01/11 07:13:13;;;;;;;71.60;31.40;;;;;;;3.85;55.59;99590.90;108158;1251;70464;-66
2024/01/11 07:15:40;;;;;;;65.60;27.80;;;;;;;3.91;55.67;99593.25;108185;1254;71863;-66
2024/01/11 07:18:08;;;;;;;72.00;29.00;;;;;;;3.84;55.77;99586.06;108252;1254;61692;-66
2024/01/11 07:20:36;;;;;;;67.80;29.80;;;;;;;4.07;55.31;99587.03;108218;1251;60101;-66
2024/01/11 07:23:03;;;;;;;69.50;29.80;;;;;;;4.19;55.29;99587.32;108191;1256;72531;-66
2024/01/11 07:25:32;;;;;;;62.60;27.10;;;;;;;4.10;55.55;99587.30;108278;1251;68567;-67
2024/01/11 07:27:59;;;;;;;64.30;27.50;;;;;;;4.24;55.01;99588.25;108253;1257;72735;-66
2024/01/11 07:30:27;;;;;;;61.10;26.70;;;;;;;4.26;55.08;99588.73;108231;1257;60415;-67
2024/01/11 07:32:54;;;;;;;67.80;28.80;;;;;;;4.41;54.73;99583.20;108248;1256;60319;-67
2024/01/11 07:35:22;;;;;;;62.10;27.50;;;;;;;4.41;54.54;99584.43;108164;1254;73904;-67
2024/01/11 07:37:50;;;;;;;70.00;28.30;;;;;;;4.49;54.63;99582.55;108100;1253;69446;-66
2024/01/11 07:40:17;;;;;;;67.30;28.70;;;;;;;4.32;54.92;99578.70;108113;1254;71404;-66
2024/01/11 07:42:46;;;;;;;60.40;27.30;;;;;;;4.07;55.58;99576.08;108041;1254;60460;-67
2024/01/11 07:45:13;;;;;;;68.30;28.90;;;;;;;4.32;55.08;99567.59;108038;1253;60196;-66
2024/01/11 07:47:41;;;;;;;63.50;26.70;;;;;;;4.44;54.83;99569.08;108094;1253;73822;-66
2024/01/11 07:50:15;;;;;;;60.40;27.20;;;;;;;4.22;55.27;99568.65;108080;1252;68726;-66
2024/01/11 07:52:42;;;;;;;72.30;28.30;;;;;;;4.34;55.08;99564.06;107972;1258;71875;-66
2024/01/11 07:55:12;;;;;;;70.80;25.40;;;;;;;4.32;55.16;99559.41;108147;1253;60910;-67
2024/01/11 07:57:40;;;;;;;62.90;26.70;;;;;;;4.27;55.24;99557.80;108089;1254;60434;-66
2024/01/11 08:00:09;;;;;;;68.40;29.50;;;;;;;4.27;55.33;99552.73;107987;1259;73903;-66
2024/01/11 08:02:39;;;;;;;;;;;;;;;4.36;54.91;99553.60;108114;1254;68717;-66
2024/01/11 08:05:09;;;;;;;57.00;25.50;;;;;;;4.49;55.07;99563.42;108084;1254;72499;-66
2024/01/11 08:07:37;;;;;;;59.60;25.50;;;;;;;4.53;54.85;99560.02;108091;1254;62715;-66
2024/01/11 08:10:06;;;;;;;61.30;27.30;;;;;;;4.38;55.23;99555.81;107956;1253;109062;-66
2024/01/11 08:14:36;;;;;;;60.40;26.10;;;;;;;2.23;61.58;99561.64;105008;1290;601082;-67
2024/01/11 08:17:04;;;;;;;69.10;28.70;;;;;;;3.65;57.45;99554.80;107385;1264;61983;-67
2024/01/11 08:19:32;;;;;;;65.70;28.90;;;;;;;3.89;56.78;99559.92;107334;1263;59282;-68
2024/01/11 08:22:00;;;;;;;57.40;26.40;;;;;;;3.96;56.44;99562.73;107364;1263;72550;-67
2024/01/11 08:24:27;;;;;;;70.50;30.70;;;;;;;3.99;56.31;99564.43;107679;1257;70082;-68
2024/01/11 08:26:55;;;;;;;63.20;26.60;;;;;;;4.03;56.05;99570.77;107675;1257;73594;-67
2024/01/11 08:29:23;;;;;;;62.90;27.10;;;;;;;3.96;56.39;99566.21;107732;1257;218907;-68
2024/01/11 08:31:50;;;;;;;58.60;26.60;;;;;;;3.77;56.72;99560.48;107899;1258;58997;-67
2024/01/11 08:34:18;;;;;;;59.20;26.00;;;;;;;3.77;56.69;99557.89;107701;1256;72377;-66
2024/01/11 08:36:46;;;;;;;63.40;27.50;;;;;;;4.04;56.30;99551.30;107795;1257;69341;-67
2024/01/11 08:39:17;;;;;;;68.50;27.80;;;;;;;4.27;55.89;99554.66;107899;1257;72438;-66
2024/01/11 08:41:44;;;;;;;61.70;26.30;;;;;;;4.31;55.51;99551.10;107841;1257;60353;-67
2024/01/11 08:44:12;;;;;;;59.70;25.70;;;;;;;4.38;55.28;99546.60;107663;1257;60077;-67
2024/01/11 08:46:40;;;;;;;63.00;26.20;;;;;;;4.12;55.70;99542.45;107904;1257;72139;-67
2024/01/11 08:49:08;;;;;;;59.80;26.10;;;;;;;4.25;55.51;99536.46;107786;1255;69932;-67
2024/01/11 08:51:36;;;;;;;68.70;26.80;;;;;;;4.35;55.23;99539.19;108005;1257;73047;-67
2024/01/11 08:54:04;;;;;;;64.00;27.40;;;;;;;4.41;54.99;99533.70;107628;1259;60522;-66
2024/01/11 08:56:31;;;;;;;68.20;28.50;;;;;;;4.13;55.52;99531.48;107787;1256;60212;-66
2024/01/11 08:58:59;;;;;;;62.40;26.00;;;;;;;4.10;55.94;99524.95;107765;1257;71326;-66
2024/01/11 09:01:28;;;;;;;62.00;26.30;;;;;;;4.05;55.94;99524.88;108006;1257;68700;-66
2024/01/11 09:03:55;;;;;;;67.80;27.30;;;;;;;4.01;56.06;99517.48;107996;1257;71512;-66
2024/01/11 09:06:23;;;;;;;61.30;25.60;;;;;;;4.01;56.06;99511.73;107858;1257;60937;-66
2024/01/11 09:08:50;;;;;;;55.00;24.40;;;;;;;3.87;56.35;99503.87;107943;1257;60396;-67
2024/01/11 09:11:18;;;;;;;60.10;24.10;;;;;;;4.07;55.71;99504.87;107875;1256;72471;-67
2024/01/11 09:13:46;;;;;;;49.10;19.20;;;;;;;4.14;55.63;99509.39;107819;1256;70065;-68
2024/01/11 09:16:15;;;;;;;65.10;28.00;;;;;;;4.15;55.66;99504.84;107845;1257;70466;-66
2024/01/11 09:18:44;;;;;;;57.60;23.70;;;;;;;4.26;55.38;99501.67;107902;1257;61632;-66
2024/01/11 09:21:12;;;;;;;67.90;27.40;;;;;;;4.20;55.86;99495.39;107881;1257;59988;-68
2024/01/11 09:23:39;;;;;;;61.30;24.40;;;;;;;4.22;55.42;99493.77;107863;1257;72261;-68
2024/01/11 09:26:07;;;;;;;64.60;26.20;;;;;;;3.73;56.42;99482.77;107847;1257;68320;-68
2024/01/11 09:28:35;;;;;;;58.90;24.80;;;;;;;3.87;56.08;99480.06;107786;1262;71470;-67
2024/01/11 09:31:02;;;;;;;65.90;27.40;;;;;;;3.99;55.85;99470.63;107814;1257;61683;-68
2024/01/11 09:33:31;;;;;;;63.60;25.70;;;;;;;4.03;55.77;99475.06;107750;1256;59290;-67
2024/01/11 09:35:59;;;;;;;67.50;26.30;;;;;;;4.07;55.68;99468.54;107713;1257;73238;-67
2024/01/11 09:38:26;;;;;;;60.60;25.40;;;;;;;4.07;55.72;99467.15;107958;1257;72587;-67
2024/01/11 09:41:13;;;;;;;69.90;29.30;;;;;;;4.15;55.60;99459.52;107848;1257;71804;-68
2024/01/11 09:43:42;;;;;;;53.50;23.70;;;;;;;4.16;55.53;99452.02;107849;1257;62405;-66
2024/01/11 09:46:10;;;;;;;64.00;27.00;;;;;;;4.07;55.65;99449.61;108054;1256;60028;-66
2024/01/11 09:48:38;;;;;;;62.80;27.10;;;;;;;3.86;56.27;99445.17;107841;1262;73215;-66
2024/01/11 09:51:09;;;;;;;67.90;27.50;;;;;;;3.58;57.11;99445.57;108117;1258;69972;-67
2024/01/11 09:53:38;;;;;;;;;;;;;;;3.74;56.58;99443.88;107767;1257;72955;-67
2024/01/11 09:56:07;;;;;;;59.10;22.90;;;;;;;3.89;56.41;99439.39;107916;1257;61740;-66
2024/01/11 09:58:38;;;;;;;67.40;25.50;;;;;;;3.91;56.14;99438.13;107832;1261;61119;-67
2024/01/11 10:01:09;;;;;;;58.00;24.90;;;;;;;3.98;55.97;99434.51;107967;1260;74288;-67
2024/01/11 10:03:39;;;;;;;68.10;27.30;;;;;;;3.82;56.11;99431.20;108008;1257;72878;-66
2024/01/11 10:06:07;;;;;;;56.30;23.60;;;;;;;3.79;56.04;99428.48;107675;1257;74212;-66
2024/01/11 10:08:35;;;;;;;56.20;23.30;;;;;;;3.66;56.15;99430.14;107721;1260;60672;-66
2024/01/11 10:11:03;;;;;;;62.20;26.60;;;;;;;3.62;56.37;99425.69;107691;1257;59487;-66
2024/01/11 10:13:31;;;;;;;63.00;27.80;;;;;;;3.96;55.65;99424.32;107848;1257;73028;-67
2024/01/11 10:16:09;;;;;;;61.90;25.80;;;;;;;4.16;54.88;99413.10;107785;1257;72663;-67
2024/01/11 10:18:37;;;;;;;56.90;26.40;;;;;;;4.31;54.49;99408.23;107803;1257;72746;-67
2024/01/11 10:21:05;;;;;;;76.40;26.60;;;;;;;4.43;54.27;99401.37;107775;1257;62858;-67
2024/01/11 10:23:34;;;;;;;64.30;26.80;;;;;;;4.22;54.35;99400.81;107747;1262;61172;-65
2024/01/11 10:26:02;;;;;;;60.20;24.00;;;;;;;4.12;54.58;99395.63;107805;1255;73098;-66
2024/01/11 10:28:29;;;;;;;68.30;27.40;;;;;;;4.14;54.54;99395.95;108073;1256;72193;-67
2024/01/11 10:30:57;;;;;;;57.90;25.50;;;;;;;4.16;54.37;99388.11;107812;1262;73519;-65
2024/01/11 10:33:25;;;;;;;60.50;23.30;;;;;;;4.12;54.46;99385.58;107635;1257;61032;-67
2024/01/11 10:35:55;;;;;;;64.00;26.90;;;;;;;4.01;54.78;99384.94;107773;1257;59691;-67
2024/01/11 10:38:23;;;;;;;57.80;25.70;;;;;;;4.02;54.73;99386.33;107763;1256;72685;-67
2024/01/11 10:40:50;;;;;;;71.90;28.20;;;;;;;4.05;54.67;99389.03;107560;1265;72407;-67
2024/01/11 10:43:19;;;;;;;59.40;24.90;;;;;;;4.30;54.13;99386.89;107779;1257;72709;-69
2024/01/11 10:45:48;;;;;;;59.20;24.20;;;;;;;4.35;53.73;99373.22;107582;1256;62021;-67
2024/01/11 10:48:16;;;;;;;62.40;25.20;;;;;;;4.41;53.59;99365.94;107789;1257;60141;-68
2024/01/11 10:50:45;;;;;;;52.80;22.20;;;;;;;4.47;53.44;99362.51;107639;1257;75286;-67
2024/01/11 10:53:12;;;;;;;63.20;26.80;;;;;;;4.51;53.40;99358.95;108080;1253;70555;-68
2024/01/11 10:55:40;;;;;;;63.20;25.90;;;;;;;4.53;53.34;99357.84;108027;1254;72608;-67
2024/01/11 10:58:08;;;;;;;57.10;24.60;;;;;;;4.36;53.51;99356.52;107893;1254;61655;-67
2024/01/11 11:00:35;;;;;;;63.50;26.80;;;;;;;4.36;53.50;99351.13;108052;1254;59449;-67
2024/01/11 11:03:06;;;;;;;58.80;24.00;;;;;;;4.31;53.70;99347.23;108020;1254;71756;-67
2024/01/11 11:05:37;;;;;;;68.10;26.60;;;;;;;4.34;53.75;99341.97;108078;1254;70518;-67
2024/01/11 11:08:08;;;;;;;63.50;26.10;;;;;;;4.40;53.76;99341.46;108061;1258;74812;-65
2024/01/11 11:10:37;;;;;;;52.10;23.40;;;;;;;4.19;53.95;99328.95;107990;1254;60228;-65
2024/01/11 11:13:06;;;;;;;58.10;25.60;;;;;;;4.42;53.67;99323.70;108027;1253;59769;-67
2024/01/11 11:15:33;;;;;;;61.30;27.50;;;;;;;4.51;53.47;99317.03;108082;1254;72603;-67
2024/01/11 11:18:01;;;;;;;58.80;23.80;;;;;;;4.44;53.45;99317.91;108041;1254;70472;-67
2024/01/11 11:20:29;;;;;;;71.30;27.10;;;;;;;4.55;53.23;99312.06;108085;1259;74890;-67
2024/01/11 11:23:07;;;;;;;58.70;25.40;;;;;;;4.67;53.09;99307.94;108082;1254;60439;-67